createdAt,value
2023-01-27T00:01:19.392Z,15.60
2023-01-27T00:03:46.423Z,15.33
2023-01-27T00:06:13.495Z,15.63
2023-01-27T00:08:43.289Z,15.84
2023-01-27T00:11:09.934Z,15.73
2023-01-27T00:13:36.576Z,15.12
2023-01-27T00:16:06.331Z,15.95
2023-01-27T00:18:33.022Z,15.41
2023-01-27T00:20:59.838Z,15.14
2023-01-27T00:23:27.595Z,14.97
2023-01-27T00:25:54.117Z,14.87
2023-01-27T00:28:20.623Z,14.41
2023-01-27T00:30:47.127Z,13.12
2023-01-27T00:33:13.702Z,13.31
2023-01-27T00:36:08.134Z,13.50
2023-01-27T00:38:36.272Z,13.23
2023-01-27T00:41:02.770Z,13.07
2023-01-27T00:43:29.373Z,13.10
2023-01-27T00:45:55.935Z,13.44
2023-01-27T00:48:22.529Z,13.56
2023-01-27T00:50:49.083Z,13.13
2023-01-27T00:53:15.605Z,13.37
2023-01-27T00:55:42.183Z,13.65
2023-01-27T00:58:08.679Z,13.76
2023-01-27T01:00:35.235Z,13.75
2023-01-27T01:03:01.877Z,14.43
2023-01-27T01:05:28.459Z,14.06
2023-01-27T01:07:54.936Z,14.72
2023-01-27T01:10:21.491Z,14.72
2023-01-27T01:12:48.098Z,15.15
2023-01-27T01:15:15.037Z,14.99
2023-01-27T01:17:41.685Z,15.75
2023-01-27T01:20:09.104Z,15.67
2023-01-27T01:22:35.727Z,15.56
2023-01-27T01:25:02.257Z,15.26
2023-01-27T01:27:28.833Z,15.19
2023-01-27T01:29:55.404Z,16.09
2023-01-27T01:32:22.007Z,16.20
2023-01-27T01:34:48.487Z,15.94
2023-01-27T01:37:15.001Z,16.66
2023-01-27T01:39:41.503Z,16.38
2023-01-27T01:42:07.991Z,16.93
2023-01-27T01:44:34.507Z,17.03
2023-01-27T01:47:01.203Z,16.44
2023-01-27T01:49:39.356Z,16.97
2023-01-27T01:52:15.089Z,16.89
2023-01-27T01:54:47.244Z,16.64
2023-01-27T01:57:23.079Z,17.22
2023-01-27T02:00:01.778Z,17.43
2023-01-27T02:02:31.261Z,17.10
2023-01-27T02:05:06.175Z,17.03
2023-01-27T02:07:46.630Z,16.88
2023-01-27T02:10:13.886Z,16.98
2023-01-27T02:12:40.627Z,16.33
2023-01-27T02:15:08.698Z,16.42
2023-01-27T02:17:35.665Z,16.12
2023-01-27T02:20:02.088Z,16.32
2023-01-27T02:22:59.464Z,16.08
2023-01-27T02:25:34.905Z,16.03
2023-01-27T02:28:02.542Z,16.25
2023-01-27T02:30:29.780Z,15.77
2023-01-27T02:32:56.467Z,16.05
2023-01-27T02:35:33.282Z,16.11
2023-01-27T02:38:00.585Z,16.31
2023-01-27T02:40:30.156Z,16.05
2023-01-27T02:42:57.633Z,16.46
2023-01-27T02:45:24.260Z,16.13
2023-01-27T02:47:50.781Z,16.46
2023-01-27T02:50:17.964Z,15.83
2023-01-27T02:52:44.487Z,15.81
2023-01-27T02:55:11.263Z,16.48
2023-01-27T02:57:37.937Z,16.28
2023-01-27T03:00:04.863Z,16.62
2023-01-27T03:02:31.374Z,16.59
2023-01-27T03:04:58.043Z,16.17
2023-01-27T03:07:25.607Z,16.70
2023-01-27T03:09:52.580Z,16.73
2023-01-27T03:12:19.057Z,16.41
2023-01-27T03:14:46.231Z,16.38
2023-01-27T03:17:12.716Z,17.26
2023-01-27T03:19:39.355Z,16.95
2023-01-27T03:22:05.868Z,16.88
2023-01-27T03:24:32.407Z,16.90
2023-01-27T03:26:58.938Z,17.26
2023-01-27T03:29:25.423Z,17.44
2023-01-27T03:31:51.988Z,16.73
2023-01-27T03:34:18.544Z,16.79
2023-01-27T03:36:45.064Z,16.74
2023-01-27T03:39:11.541Z,16.46
2023-01-27T03:41:39.222Z,17.12
2023-01-27T03:44:05.691Z,16.92
2023-01-27T03:46:32.186Z,16.61
2023-01-27T03:48:58.994Z,16.96
2023-01-27T03:51:26.930Z,16.95
2023-01-27T03:53:53.835Z,17.00
2023-01-27T03:56:21.700Z,16.94
2023-01-27T03:58:49.959Z,17.07
2023-01-27T04:01:22.194Z,17.27
2023-01-27T04:03:50.773Z,16.59
2023-01-27T04:06:21.580Z,17.21
2023-01-27T04:08:48.085Z,17.27
2023-01-27T04:11:14.762Z,17.10
2023-01-27T04:13:41.302Z,17.52
2023-01-27T04:16:07.847Z,17.20
2023-01-27T04:18:34.363Z,16.82
2023-01-27T04:21:00.891Z,16.65
2023-01-27T04:23:27.415Z,16.62
2023-01-27T04:25:54.031Z,17.30
2023-01-27T04:28:37.234Z,17.55
2023-01-27T04:31:07.187Z,17.43
2023-01-27T04:33:33.753Z,17.29
2023-01-27T04:36:00.428Z,18.02
2023-01-27T04:38:27.051Z,17.89
2023-01-27T04:40:53.557Z,17.67
2023-01-27T04:43:20.055Z,17.83
2023-01-27T04:45:46.562Z,18.10
2023-01-27T04:48:13.140Z,18.27
2023-01-27T04:50:39.632Z,17.77
2023-01-27T04:53:06.107Z,18.00
2023-01-27T04:55:32.611Z,18.25
2023-01-27T04:57:59.252Z,18.44
2023-01-27T05:00:25.865Z,18.40
2023-01-27T05:02:52.393Z,18.62
2023-01-27T05:05:18.953Z,18.65
2023-01-27T05:07:45.446Z,19.34
2023-01-27T05:10:12.155Z,18.75
2023-01-27T05:12:38.711Z,19.19
2023-01-27T05:15:05.791Z,19.28
2023-01-27T05:17:33.433Z,19.02
2023-01-27T05:19:59.961Z,19.33
2023-01-27T05:22:26.475Z,19.15
2023-01-27T05:24:53.057Z,19.43
2023-01-27T05:27:19.585Z,19.49
2023-01-27T05:29:46.120Z,19.21
2023-01-27T05:32:12.899Z,19.43
2023-01-27T05:34:39.552Z,19.91
2023-01-27T05:37:06.102Z,19.49
2023-01-27T05:39:32.623Z,19.71
2023-01-27T05:41:59.269Z,20.01
2023-01-27T05:44:25.791Z,20.16
2023-01-27T05:46:52.259Z,20.18
2023-01-27T05:49:18.902Z,20.12
2023-01-27T05:51:45.389Z,20.14
2023-01-27T05:54:11.858Z,19.89
2023-01-27T05:56:38.656Z,19.97
2023-01-27T05:59:05.143Z,19.99
2023-01-27T06:01:34.032Z,20.19
2023-01-27T06:04:01.296Z,20.16
2023-01-27T06:06:30.436Z,20.42
2023-01-27T06:08:57.134Z,20.20
2023-01-27T06:11:24.204Z,20.63
2023-01-27T06:13:52.457Z,20.40
2023-01-27T06:16:21.400Z,20.38
2023-01-27T06:18:48.699Z,21.29
2023-01-27T06:21:17.984Z,20.81
2023-01-27T06:23:44.547Z,20.70
2023-01-27T06:26:14.581Z,20.68
2023-01-27T06:28:41.070Z,20.92
2023-01-27T06:31:15.240Z,22.03
2023-01-27T06:33:41.885Z,21.10
2023-01-27T06:36:12.078Z,20.59
2023-01-27T06:38:38.713Z,21.06
2023-01-27T06:41:05.649Z,20.52
2023-01-27T06:43:32.239Z,20.96
2023-01-27T06:45:58.817Z,21.12
2023-01-27T06:48:27.107Z,20.69
2023-01-27T06:50:55.794Z,21.07
2023-01-27T06:53:23.478Z,21.33
2023-01-27T06:55:55.716Z,21.15
2023-01-27T06:58:22.287Z,21.13
2023-01-27T07:00:48.796Z,21.24
2023-01-27T07:03:18.132Z,21.36
2023-01-27T07:05:44.670Z,21.68
2023-01-27T07:08:11.312Z,21.47
2023-01-27T07:10:37.843Z,21.51
2023-01-27T07:13:09.593Z,22.26
2023-01-27T07:15:36.803Z,20.94
2023-01-27T07:18:04.479Z,21.47
2023-01-27T07:20:31.902Z,21.23
2023-01-27T07:23:02.521Z,20.98
2023-01-27T07:25:31.048Z,21.12
2023-01-27T07:27:58.301Z,20.57
2023-01-27T07:30:26.500Z,21.60
2023-01-27T07:32:53.797Z,21.48
2023-01-27T07:35:20.631Z,21.33
2023-01-27T07:37:47.209Z,21.22
2023-01-27T07:40:14.004Z,21.02
2023-01-27T07:42:41.344Z,21.12
2023-01-27T07:45:08.451Z,21.36
2023-01-27T07:47:35.166Z,21.53
2023-01-27T07:50:01.681Z,21.28
2023-01-27T07:52:28.248Z,21.49
2023-01-27T07:54:54.757Z,20.92
2023-01-27T07:57:21.294Z,21.29
2023-01-27T07:59:47.791Z,20.67
2023-01-27T08:02:14.377Z,20.53
2023-01-27T08:04:52.583Z,21.42
2023-01-27T08:07:19.721Z,20.84
2023-01-27T08:09:46.278Z,20.81
2023-01-27T08:12:12.779Z,20.57
2023-01-27T08:14:39.417Z,20.12
2023-01-27T08:17:05.982Z,20.46
2023-01-27T08:19:32.474Z,20.47
2023-01-27T08:21:58.981Z,20.75
2023-01-27T08:24:25.668Z,20.50
2023-01-27T08:26:52.316Z,20.00
2023-01-27T08:29:18.878Z,20.14
2023-01-27T08:31:45.497Z,19.86
2023-01-27T08:34:12.045Z,20.26
2023-01-27T08:36:41.276Z,19.63
2023-01-27T08:39:09.512Z,19.82
2023-01-27T08:41:36.133Z,19.68
2023-01-27T08:44:02.711Z,20.12
2023-01-27T08:46:29.466Z,19.62
2023-01-27T08:48:55.981Z,19.89
2023-01-27T08:51:22.484Z,19.84
2023-01-27T08:53:49.019Z,20.26
2023-01-27T08:56:16.593Z,20.06
2023-01-27T08:58:46.112Z,20.13
2023-01-27T09:01:12.940Z,19.74
2023-01-27T09:03:39.550Z,20.83
2023-01-27T09:06:09.592Z,20.01
2023-01-27T09:08:36.134Z,20.61
2023-01-27T09:11:17.338Z,20.77
2023-01-27T09:13:43.865Z,20.69
2023-01-27T09:16:10.505Z,19.53
2023-01-27T09:18:37.074Z,19.54
2023-01-27T09:21:06.839Z,19.42
2023-01-27T09:23:34.073Z,19.96
2023-01-27T09:26:00.599Z,19.84
2023-01-27T09:28:27.178Z,19.35
2023-01-27T09:31:00.420Z,18.91
2023-01-27T09:33:27.250Z,19.09
2023-01-27T09:36:04.335Z,19.05
2023-01-27T09:38:37.848Z,19.14
2023-01-27T09:41:32.031Z,18.59
2023-01-27T09:44:08.594Z,20.33
2023-01-27T09:47:00.524Z,18.93
2023-01-27T09:49:51.394Z,17.92
2023-01-27T09:53:11.030Z,18.44
2023-01-27T09:55:52.659Z,17.98
2023-01-27T09:58:36.743Z,18.09
2023-01-27T10:01:50.496Z,17.81
2023-01-27T10:04:49.764Z,18.37
2023-01-27T10:07:16.619Z,19.03
2023-01-27T10:10:03.193Z,18.67
2023-01-27T10:13:01.959Z,17.84
2023-01-27T10:15:32.003Z,17.94
2023-01-27T10:18:07.727Z,18.56
2023-01-27T10:20:47.390Z,18.60
2023-01-27T10:23:31.084Z,18.04
2023-01-27T10:26:19.514Z,18.46
2023-01-27T10:28:51.154Z,18.29
2023-01-27T10:31:27.478Z,18.51
2023-01-27T10:33:57.062Z,18.68
2023-01-27T10:36:38.588Z,19.01
2023-01-27T10:39:24.607Z,19.83
2023-01-27T10:42:12.403Z,18.75
2023-01-27T10:44:38.904Z,18.92
2023-01-27T10:47:29.886Z,18.62
2023-01-27T10:50:07.917Z,19.27
2023-01-27T10:53:12.000Z,18.86
2023-01-27T10:56:05.045Z,19.33
2023-01-27T10:58:44.007Z,19.27
2023-01-27T11:01:21.677Z,18.69
2023-01-27T11:04:06.082Z,19.24
2023-01-27T11:06:42.588Z,19.08
2023-01-27T11:09:33.891Z,19.50
2023-01-27T11:12:11.202Z,19.56
2023-01-27T11:14:51.013Z,19.33
2023-01-27T11:17:59.426Z,19.35
2023-01-27T11:20:38.653Z,19.43
2023-01-27T11:23:23.818Z,19.09
2023-01-27T11:26:17.909Z,19.95
2023-01-27T11:28:59.264Z,19.19
2023-01-27T11:31:31.905Z,19.13
2023-01-27T11:34:35.713Z,18.77
2023-01-27T11:37:18.579Z,18.29
2023-01-27T11:39:45.323Z,18.68
2023-01-27T11:42:13.223Z,18.43
2023-01-27T11:44:43.631Z,18.03
2023-01-27T11:47:23.395Z,17.82
2023-01-27T11:49:53.448Z,17.38
2023-01-27T11:52:23.505Z,17.47
2023-01-27T11:55:16.221Z,17.67
2023-01-27T11:57:47.757Z,16.56
2023-01-27T12:00:34.809Z,17.57
2023-01-27T12:03:16.332Z,16.87
2023-01-27T12:08:44.390Z,17.10
2023-01-27T12:11:21.668Z,16.82
2023-01-27T12:14:03.951Z,16.63
2023-01-27T12:16:51.062Z,16.85
2023-01-27T12:19:25.216Z,16.11
2023-01-27T12:21:57.716Z,15.68
2023-01-27T12:24:32.695Z,16.58
2023-01-27T12:27:01.198Z,16.53
2023-01-27T12:29:27.673Z,15.75
2023-01-27T12:31:58.125Z,15.65
2023-01-27T12:34:29.303Z,16.15
2023-01-27T12:36:57.576Z,15.86
2023-01-27T12:39:33.014Z,16.13
2023-01-27T12:41:59.631Z,15.94
2023-01-27T12:44:26.293Z,16.17
2023-01-27T12:47:00.806Z,16.06
2023-01-27T12:49:37.110Z,16.04
2023-01-27T12:52:07.118Z,15.01
2023-01-27T12:54:34.611Z,15.47
2023-01-27T12:57:05.438Z,15.68
2023-01-27T12:59:34.064Z,15.62
2023-01-27T13:02:20.238Z,15.67
2023-01-27T13:04:55.535Z,14.99
2023-01-27T13:07:38.149Z,14.60
2023-01-27T13:10:16.874Z,14.75
2023-01-27T13:12:52.549Z,14.72
2023-01-27T13:15:22.428Z,14.40
2023-01-27T13:17:54.006Z,14.44
2023-01-27T13:20:30.682Z,15.13
2023-01-27T13:23:04.201Z,14.97
2023-01-27T13:25:44.324Z,14.99
2023-01-27T13:28:18.993Z,15.05
2023-01-27T13:30:52.473Z,14.74
2023-01-27T13:33:39.772Z,15.00
2023-01-27T13:36:30.289Z,14.29
2023-01-27T13:39:35.356Z,14.33
2023-01-27T13:42:04.860Z,14.38
2023-01-27T13:45:12.460Z,14.13
2023-01-27T13:47:55.150Z,14.05
2023-01-27T13:50:30.876Z,14.07
2023-01-27T13:53:00.189Z,13.95
2023-01-27T13:55:45.662Z,13.59
2023-01-27T13:58:44.416Z,14.31
2023-01-27T14:01:29.293Z,14.23
2023-01-27T14:04:23.917Z,14.77
2023-01-27T14:07:19.723Z,14.53
2023-01-27T14:10:15.802Z,14.27
2023-01-27T14:12:53.604Z,14.64
2023-01-27T14:15:44.430Z,14.81
2023-01-27T14:18:23.828Z,14.26
2023-01-27T14:24:29.656Z,14.63
2023-01-27T14:27:12.481Z,14.14
2023-01-27T14:30:14.206Z,13.60
2023-01-27T14:32:56.019Z,13.83
2023-01-27T14:35:39.738Z,13.81
2023-01-27T14:38:15.406Z,13.97
2023-01-27T14:40:51.180Z,13.74
2023-01-27T14:43:35.487Z,13.59
2023-01-27T14:46:22.541Z,14.00
2023-01-27T14:49:21.663Z,13.98
2023-01-27T14:51:56.753Z,13.59
2023-01-27T14:54:23.426Z,13.21
2023-01-27T14:57:10.946Z,13.34
2023-01-27T15:00:02.307Z,13.51
2023-01-27T15:02:53.208Z,13.10
2023-01-27T15:05:54.570Z,13.71
2023-01-27T15:08:36.672Z,13.97
2023-01-27T15:11:27.300Z,13.18
2023-01-27T15:14:34.919Z,13.04
2023-01-27T15:17:39.191Z,12.29
2023-01-27T15:20:32.009Z,12.35
2023-01-27T15:23:07.289Z,12.63
2023-01-27T15:25:40.895Z,12.38
2023-01-27T15:28:15.126Z,12.62
2023-01-27T15:31:06.625Z,12.12
2023-01-27T15:33:48.168Z,12.20
2023-01-27T15:36:29.908Z,11.53
2023-01-27T15:39:20.210Z,12.08
2023-01-27T15:42:03.378Z,11.81
2023-01-27T15:44:41.837Z,11.93
2023-01-27T15:47:19.826Z,12.01
2023-01-27T15:49:51.141Z,11.53
2023-01-27T15:52:20.539Z,11.35
2023-01-27T15:54:51.186Z,11.77
2023-01-27T15:57:29.242Z,11.68
2023-01-27T16:00:07.047Z,11.33
2023-01-27T16:02:44.068Z,11.44
2023-01-27T16:05:24.923Z,11.47
2023-01-27T16:07:57.923Z,10.98
2023-01-27T16:10:31.134Z,11.30
2023-01-27T16:13:25.875Z,11.36
2023-01-27T16:16:14.130Z,11.42
2023-01-27T16:18:47.585Z,11.72
2023-01-27T16:21:36.663Z,11.40
2023-01-27T16:24:15.540Z,11.32
2023-01-27T16:26:50.206Z,11.44
2023-01-27T16:29:36.456Z,11.86
2023-01-27T16:32:07.163Z,11.45
2023-01-27T16:34:40.058Z,11.53
2023-01-27T16:37:22.183Z,11.45
2023-01-27T16:40:06.793Z,11.71
2023-01-27T16:42:40.759Z,11.47
2023-01-27T16:45:26.984Z,12.04
2023-01-27T16:48:06.435Z,12.45
2023-01-27T16:50:37.342Z,12.31
2023-01-27T16:53:15.375Z,11.97
2023-01-27T16:55:42.167Z,11.71
2023-01-27T16:58:21.925Z,12.00
2023-01-27T17:00:49.174Z,11.83
2023-01-27T17:03:21.032Z,12.00
2023-01-27T17:05:57.745Z,11.87
2023-01-27T17:08:26.960Z,11.58
2023-01-27T17:11:06.336Z,12.34
2023-01-27T17:13:46.952Z,11.49
2023-01-27T17:16:24.230Z,12.04
2023-01-27T17:18:53.531Z,12.05
2023-01-27T17:21:51.391Z,12.91
2023-01-27T17:24:24.851Z,13.71
2023-01-27T17:26:59.813Z,14.91
2023-01-27T17:29:34.562Z,14.46
2023-01-27T17:32:01.568Z,13.46
2023-01-27T17:34:28.549Z,20.75
2023-01-27T17:37:20.496Z,28.97
2023-01-27T17:39:52.629Z,26.81
2023-01-27T17:42:20.504Z,21.40
2023-01-27T17:44:48.481Z,20.47
2023-01-27T17:47:17.838Z,17.13
2023-01-27T17:49:48.874Z,15.77
2023-01-27T17:52:22.608Z,14.76
2023-01-27T17:54:50.258Z,13.72
2023-01-27T17:57:29.119Z,13.65
2023-01-27T18:00:04.372Z,12.74
2023-01-27T18:02:35.024Z,12.04
2023-01-27T18:05:05.922Z,13.82
2023-01-27T18:07:33.376Z,13.18
2023-01-27T18:09:59.917Z,12.01
2023-01-27T18:12:35.715Z,12.22
2023-01-27T18:15:37.502Z,11.88
2023-01-27T18:18:24.573Z,12.31
2023-01-27T18:21:08.992Z,12.61
2023-01-27T18:23:46.162Z,12.56
2023-01-27T18:26:37.537Z,12.96
2023-01-27T18:29:13.248Z,12.57
2023-01-27T18:31:48.217Z,13.57
2023-01-27T18:34:26.595Z,13.44
2023-01-27T18:37:00.399Z,14.43
2023-01-27T18:39:32.523Z,12.40
2023-01-27T18:41:59.856Z,12.40
2023-01-27T18:44:26.973Z,11.85
2023-01-27T18:47:17.269Z,12.79
2023-01-27T18:50:16.254Z,12.09
2023-01-27T18:52:43.191Z,13.27
2023-01-27T18:55:27.942Z,17.64
2023-01-27T18:57:57.234Z,13.07
2023-01-27T19:00:30.453Z,12.81
2023-01-27T19:03:01.603Z,12.86
2023-01-27T19:05:34.135Z,12.99
2023-01-27T19:08:02.066Z,12.80
2023-01-27T19:10:32.366Z,13.11
2023-01-27T19:13:01.161Z,13.27
2023-01-27T19:15:31.149Z,14.56
2023-01-27T19:18:00.153Z,13.64
2023-01-27T19:20:30.084Z,13.41
2023-01-27T19:22:58.914Z,13.92
2023-01-27T19:25:29.709Z,14.00
2023-01-27T19:28:02.975Z,14.71
2023-01-27T19:30:32.571Z,14.51
2023-01-27T19:32:59.296Z,14.33
2023-01-27T19:35:30.340Z,14.98
2023-01-27T19:38:02.452Z,15.08
2023-01-27T19:40:29.656Z,14.77
2023-01-27T19:42:58.298Z,14.66
2023-01-27T19:45:27.859Z,14.47
2023-01-27T19:47:54.549Z,13.97
2023-01-27T19:50:27.512Z,13.75
2023-01-27T19:52:54.431Z,14.00
2023-01-27T19:55:21.288Z,13.70
2023-01-27T19:57:49.151Z,13.75
2023-01-27T20:00:31.494Z,13.84
2023-01-27T20:02:58.923Z,13.48
2023-01-27T20:05:27.833Z,13.69
2023-01-27T20:07:57.008Z,13.99
2023-01-27T20:10:26.948Z,13.72
2023-01-27T20:12:56.170Z,14.41
2023-01-27T20:15:23.780Z,13.72
2023-01-27T20:17:52.192Z,13.84
2023-01-27T20:20:19.929Z,13.66
2023-01-27T20:22:46.574Z,14.10
2023-01-27T20:25:18.700Z,13.47
2023-01-27T20:27:49.203Z,13.25
2023-01-27T20:30:21.457Z,13.46
2023-01-27T20:32:48.426Z,13.42
2023-01-27T20:35:17.406Z,13.03
2023-01-27T20:37:46.459Z,13.22
2023-01-27T20:40:19.023Z,13.77
2023-01-27T20:42:45.597Z,14.37
2023-01-27T20:45:13.240Z,13.67
2023-01-27T20:47:40.331Z,14.03
2023-01-27T20:50:08.800Z,14.59
2023-01-27T20:52:36.885Z,14.61
2023-01-27T20:55:04.771Z,14.74
2023-01-27T20:57:31.360Z,14.62
2023-01-27T20:59:58.048Z,14.83
2023-01-27T21:02:25.640Z,14.95
2023-01-27T21:04:53.260Z,15.29
2023-01-27T21:07:20.948Z,15.23
2023-01-27T21:09:47.599Z,15.36
2023-01-27T21:12:14.053Z,15.27
2023-01-27T21:14:40.540Z,15.39
2023-01-27T21:17:07.389Z,15.69
2023-01-27T21:19:33.871Z,15.57
2023-01-27T21:22:00.364Z,15.54
2023-01-27T21:24:26.892Z,15.52
2023-01-27T21:26:53.426Z,15.03
2023-01-27T21:29:22.904Z,15.77
2023-01-27T21:31:49.514Z,16.05
2023-01-27T21:34:16.147Z,15.42
2023-01-27T21:36:42.704Z,15.98
2023-01-27T21:39:09.297Z,15.45
2023-01-27T21:41:35.802Z,15.51
2023-01-27T21:44:03.461Z,15.45
2023-01-27T21:46:30.122Z,15.25
2023-01-27T21:48:56.784Z,15.13
2023-01-27T21:51:23.244Z,15.57
2023-01-27T21:53:49.715Z,15.41
2023-01-27T21:56:16.256Z,15.42
2023-01-27T21:58:42.747Z,15.54
2023-01-27T22:01:10.838Z,15.75
2023-01-27T22:03:38.287Z,15.29
2023-01-27T22:06:06.346Z,15.37
2023-01-27T22:08:33.151Z,15.87
2023-01-27T22:11:10.902Z,14.83
2023-01-27T22:13:38.110Z,15.31
2023-01-27T22:16:05.253Z,15.21
2023-01-27T22:18:31.825Z,15.68
2023-01-27T22:21:01.896Z,15.25
2023-01-27T22:23:28.472Z,15.47
2023-01-27T22:25:55.058Z,14.78
2023-01-27T22:28:21.605Z,15.62
2023-01-27T22:30:48.624Z,15.11
2023-01-27T22:33:15.188Z,15.03
2023-01-27T22:35:41.835Z,15.32
2023-01-27T22:38:08.441Z,14.98
2023-01-27T22:40:34.903Z,15.16
2023-01-27T22:43:01.683Z,15.09
2023-01-27T22:45:28.405Z,14.66
2023-01-27T22:47:54.965Z,14.87
2023-01-27T22:50:21.421Z,14.73
2023-01-27T22:52:47.917Z,14.49
2023-01-27T22:55:16.122Z,14.53
2023-01-27T22:57:44.712Z,14.53
2023-01-27T23:00:15.146Z,14.48
2023-01-27T23:02:41.921Z,14.30
2023-01-27T23:05:14.225Z,14.97
2023-01-27T23:07:40.882Z,13.89
2023-01-27T23:10:07.951Z,14.34
2023-01-27T23:12:34.456Z,13.81
2023-01-27T23:15:01.287Z,14.45
2023-01-27T23:17:27.930Z,14.28
2023-01-27T23:19:54.432Z,14.19
2023-01-27T23:22:28.226Z,14.29
2023-01-27T23:24:54.880Z,14.60
2023-01-27T23:27:21.434Z,14.39
2023-01-27T23:29:48.106Z,14.96
2023-01-27T23:32:14.740Z,14.24
2023-01-27T23:34:47.546Z,14.66
2023-01-27T23:37:14.355Z,14.58
2023-01-27T23:39:43.823Z,14.36
2023-01-27T23:42:10.508Z,14.98
2023-01-27T23:44:37.277Z,15.06
2023-01-27T23:47:03.810Z,15.13
2023-01-27T23:49:30.293Z,15.07
2023-01-27T23:51:56.775Z,15.11
2023-01-27T23:54:23.243Z,15.07
2023-01-27T23:56:49.735Z,14.91
2023-01-27T23:59:16.229Z,14.85
